sensor_id;sensor_type;location;lat;lon;timestamp;P1;durP1;ratioP1;P2;durP2;ratioP2
6763;SDS011;47432;48.760;9.178;2023-04-01T00:00:28;11.70;;;0.90;;
6763;SDS011;47432;48.760;9.178;2023-04-01T00:02:54;11.93;;;0.97;;
6763;SDS011;47432;48.760;9.178;2023-04-01T00:05:20;11.83;;;0.80;;
6763;SDS011;47432;48.760;9.178;2023-04-01T00:07:46;11.57;;;1.10;;
6763;SDS011;47432;48.760;9.178;2023-04-01T00:10:12;11.87;;;0.70;;
6763;SDS011;47432;48.760;9.178;2023-04-01T00:12:39;13.57;;;1.10;;
6763;SDS011;47432;48.760;9.178;2023-04-01T00:15:06;12.37;;;1.07;;
6763;SDS011;47432;48.760;9.178;2023-04-01T00:17:35;12.50;;;1.20;;
6763;SDS011;47432;48.760;9.178;2023-04-01T00:20:01;12.30;;;1.90;;
6763;SDS011;47432;48.760;9.178;2023-04-01T00:22:28;13.70;;;0.97;;
6763;SDS011;47432;48.760;9.178;2023-04-01T00:24:53;11.30;;;0.97;;
6763;SDS011;47432;48.760;9.178;2023-04-01T00:27:20;13.70;;;0.97;;
6763;SDS011;47432;48.760;9.178;2023-04-01T00:29:46;11.97;;;0.93;;
6763;SDS011;47432;48.760;9.178;2023-04-01T00:32:13;14.50;;;1.30;;
6763;SDS011;47432;48.760;9.178;2023-04-01T00:34:39;16.50;;;1.70;;
6763;SDS011;47432;48.760;9.178;2023-04-01T00:37:06;11.43;;;0.90;;
6763;SDS011;47432;48.760;9.178;2023-04-01T00:39:33;11.20;;;0.80;;
6763;SDS011;47432;48.760;9.178;2023-04-01T00:42:00;12.67;;;1.47;;
6763;SDS011;47432;48.760;9.178;2023-04-01T00:44:29;12.50;;;0.77;;
6763;SDS011;47432;48.760;9.178;2023-04-01T00:46:57;12.00;;;1.20;;
6763;SDS011;47432;48.760;9.178;2023-04-01T00:49:29;12.43;;;0.93;;
6763;SDS011;47432;48.760;9.178;2023-04-01T00:51:59;11.50;;;0.83;;
6763;SDS011;47432;48.760;9.178;2023-04-01T00:54:28;13.87;;;1.27;;
6763;SDS011;47432;48.760;9.178;2023-04-01T00:56:58;13.10;;;0.90;;
6763;SDS011;47432;48.760;9.178;2023-04-01T00:59:47;12.60;;;1.00;;
6763;SDS011;47432;48.760;9.178;2023-04-01T01:02:17;15.30;;;0.93;;
6763;SDS011;47432;48.760;9.178;2023-04-01T01:04:44;11.23;;;0.77;;
6763;SDS011;47432;48.760;9.178;2023-04-01T01:10:10;13.03;;;1.47;;
6763;SDS011;47432;48.760;9.178;2023-04-01T01:13:20;12.60;;;1.13;;
6763;SDS011;47432;48.760;9.178;2023-04-01T01:19:18;13.10;;;0.90;;
6763;SDS011;47432;48.760;9.178;2023-04-01T01:28:24;12.70;;;1.20;;
6763;SDS011;47432;48.760;9.178;2023-04-01T01:31:03;12.63;;;1.00;;
6763;SDS011;47432;48.760;9.178;2023-04-01T01:33:51;12.90;;;0.83;;
6763;SDS011;47432;48.760;9.178;2023-04-01T01:36:39;21.87;;;1.33;;
6763;SDS011;47432;48.760;9.178;2023-04-01T01:39:10;12.53;;;1.20;;
6763;SDS011;47432;48.760;9.178;2023-04-01T01:41:39;11.30;;;0.90;;
6763;SDS011;47432;48.760;9.178;2023-04-01T01:44:08;13.50;;;1.40;;
6763;SDS011;47432;48.760;9.178;2023-04-01T01:46:36;11.87;;;1.00;;
6763;SDS011;47432;48.760;9.178;2023-04-01T01:49:04;13.27;;;0.77;;
6763;SDS011;47432;48.760;9.178;2023-04-01T01:51:35;12.30;;;1.10;;
6763;SDS011;47432;48.760;9.178;2023-04-01T01:54:00;11.27;;;0.60;;
6763;SDS011;47432;48.760;9.178;2023-04-01T01:56:27;12.50;;;0.90;;
6763;SDS011;47432;48.760;9.178;2023-04-01T01:58:55;14.23;;;1.50;;
6763;SDS011;47432;48.760;9.178;2023-04-01T02:01:28;11.87;;;0.80;;
6763;SDS011;47432;48.760;9.178;2023-04-01T02:03:57;14.50;;;1.20;;
6763;SDS011;47432;48.760;9.178;2023-04-01T02:06:25;15.87;;;1.17;;
6763;SDS011;47432;48.760;9.178;2023-04-01T02:08:55;12.33;;;0.70;;
6763;SDS011;47432;48.760;9.178;2023-04-01T02:11:30;12.00;;;0.90;;
6763;SDS011;47432;48.760;9.178;2023-04-01T02:14:17;14.43;;;0.90;;
6763;SDS011;47432;48.760;9.178;2023-04-01T02:17:04;14.17;;;1.90;;
6763;SDS011;47432;48.760;9.178;2023-04-01T02:19:39;11.37;;;0.77;;
6763;SDS011;47432;48.760;9.178;2023-04-01T02:22:24;12.07;;;0.80;;
6763;SDS011;47432;48.760;9.178;2023-04-01T02:25:07;11.50;;;0.80;;
6763;SDS011;47432;48.760;9.178;2023-04-01T02:27:38;14.70;;;0.90;;
6763;SDS011;47432;48.760;9.178;2023-04-01T02:30:05;11.20;;;0.60;;
6763;SDS011;47432;48.760;9.178;2023-04-01T02:32:32;11.30;;;0.77;;
6763;SDS011;47432;48.760;9.178;2023-04-01T02:34:59;11.17;;;0.80;;
6763;SDS011;47432;48.760;9.178;2023-04-01T02:37:28;11.40;;;0.70;;
6763;SDS011;47432;48.760;9.178;2023-04-01T02:39:54;11.03;;;0.70;;
6763;SDS011;47432;48.760;9.178;2023-04-01T02:42:27;11.30;;;0.70;;
6763;SDS011;47432;48.760;9.178;2023-04-01T02:44:52;10.57;;;0.57;;
6763;SDS011;47432;48.760;9.178;2023-04-01T02:47:18;11.70;;;0.83;;
6763;SDS011;47432;48.760;9.178;2023-04-01T02:49:44;11.03;;;1.20;;
6763;SDS011;47432;48.760;9.178;2023-04-01T02:52:13;11.00;;;0.67;;
6763;SDS011;47432;48.760;9.178;2023-04-01T02:54:39;11.17;;;0.70;;
6763;SDS011;47432;48.760;9.178;2023-04-01T02:57:05;11.30;;;0.60;;
6763;SDS011;47432;48.760;9.178;2023-04-01T02:59:32;11.30;;;0.70;;
6763;SDS011;47432;48.760;9.178;2023-04-01T03:01:57;11.00;;;0.53;;
6763;SDS011;47432;48.760;9.178;2023-04-01T03:04:26;11.87;;;0.80;;
6763;SDS011;47432;48.760;9.178;2023-04-01T03:06:51;10.67;;;0.70;;
6763;SDS011;47432;48.760;9.178;2023-04-01T03:09:18;11.13;;;0.80;;
6763;SDS011;47432;48.760;9.178;2023-04-01T03:11:43;13.20;;;0.80;;
6763;SDS011;47432;48.760;9.178;2023-04-01T03:14:09;10.63;;;0.60;;
6763;SDS011;47432;48.760;9.178;2023-04-01T03:16:35;10.37;;;0.57;;
6763;SDS011;47432;48.760;9.178;2023-04-01T03:19:01;12.67;;;0.70;;
6763;SDS011;47432;48.760;9.178;2023-04-01T03:21:27;13.27;;;1.43;;
6763;SDS011;47432;48.760;9.178;2023-04-01T03:23:53;10.80;;;0.60;;
6763;SDS011;47432;48.760;9.178;2023-04-01T03:26:19;10.77;;;0.80;;
6763;SDS011;47432;48.760;9.178;2023-04-01T03:28:46;11.30;;;0.50;;
6763;SDS011;47432;48.760;9.178;2023-04-01T03:31:12;10.73;;;0.60;;
6763;SDS011;47432;48.760;9.178;2023-04-01T03:33:39;11.80;;;0.70;;
6763;SDS011;47432;48.760;9.178;2023-04-01T03:36:05;10.40;;;0.60;;
6763;SDS011;47432;48.760;9.178;2023-04-01T03:38:32;12.93;;;0.80;;
6763;SDS011;47432;48.760;9.178;2023-04-01T03:40:59;11.90;;;0.60;;
6763;SDS011;47432;48.760;9.178;2023-04-01T03:43:25;11.13;;;0.60;;
6763;SDS011;47432;48.760;9.178;2023-04-01T03:45:52;11.00;;;0.70;;
6763;SDS011;47432;48.760;9.178;2023-04-01T03:48:19;10.60;;;0.60;;
6763;SDS011;47432;48.760;9.178;2023-04-01T03:50:47;11.37;;;0.80;;
6763;SDS011;47432;48.760;9.178;2023-04-01T03:53:13;10.80;;;0.60;;
6763;SDS011;47432;48.760;9.178;2023-04-01T03:55:40;11.40;;;0.67;;
6763;SDS011;47432;48.760;9.178;2023-04-01T03:58:06;10.20;;;0.50;;
6763;SDS011;47432;48.760;9.178;2023-04-01T04:00:35;11.17;;;0.70;;
6763;SDS011;47432;48.760;9.178;2023-04-01T04:03:01;11.00;;;0.80;;
6763;SDS011;47432;48.760;9.178;2023-04-01T04:05:26;10.03;;;0.50;;
6763;SDS011;47432;48.760;9.178;2023-04-01T04:07:52;9.93;;;0.47;;
6763;SDS011;47432;48.760;9.178;2023-04-01T04:10:19;11.23;;;0.70;;
6763;SDS011;47432;48.760;9.178;2023-04-01T04:12:48;11.00;;;0.67;;
6763;SDS011;47432;48.760;9.178;2023-04-01T04:15:15;10.70;;;0.83;;
6763;SDS011;47432;48.760;9.178;2023-04-01T04:17:40;10.10;;;0.60;;
6763;SDS011;47432;48.760;9.178;2023-04-01T04:20:06;10.20;;;0.60;;
6763;SDS011;47432;48.760;9.178;2023-04-01T04:22:33;10.40;;;0.57;;
6763;SDS011;47432;48.760;9.178;2023-04-01T04:24:59;11.50;;;0.60;;
6763;SDS011;47432;48.760;9.178;2023-04-01T04:27:25;12.77;;;1.37;;
6763;SDS011;47432;48.760;9.178;2023-04-01T04:29:51;10.17;;;0.57;;
6763;SDS011;47432;48.760;9.178;2023-04-01T04:32:17;10.70;;;0.60;;
6763;SDS011;47432;48.760;9.178;2023-04-01T04:34:43;10.37;;;0.60;;
6763;SDS011;47432;48.760;9.178;2023-04-01T04:37:09;10.03;;;0.60;;
6763;SDS011;47432;48.760;9.178;2023-04-01T04:39:35;10.33;;;0.60;;
6763;SDS011;47432;48.760;9.178;2023-04-01T04:42:01;10.80;;;0.60;;
6763;SDS011;47432;48.760;9.178;2023-04-01T04:44:27;11.30;;;0.50;;
6763;SDS011;47432;48.760;9.178;2023-04-01T04:46:53;10.17;;;0.40;;
6763;SDS011;47432;48.760;9.178;2023-04-01T04:49:19;10.30;;;0.60;;
6763;SDS011;47432;48.760;9.178;2023-04-01T04:51:45;11.00;;;0.60;;
6763;SDS011;47432;48.760;9.178;2023-04-01T04:54:11;11.00;;;0.90;;
6763;SDS011;47432;48.760;9.178;2023-04-01T04:56:37;10.80;;;0.50;;
6763;SDS011;47432;48.760;9.178;2023-04-01T04:59:03;10.67;;;0.50;;
6763;SDS011;47432;48.760;9.178;2023-04-01T05:01:30;10.73;;;0.67;;
6763;SDS011;47432;48.760;9.178;2023-04-01T05:03:55;10.73;;;0.83;;
6763;SDS011;47432;48.760;9.178;2023-04-01T05:06:24;10.70;;;0.77;;
6763;SDS011;47432;48.760;9.178;2023-04-01T05:08:50;11.30;;;0.70;;
6763;SDS011;47432;48.760;9.178;2023-04-01T05:11:17;11.70;;;0.60;;
6763;SDS011;47432;48.760;9.178;2023-04-01T05:13:45;10.53;;;0.50;;
6763;SDS011;47432;48.760;9.178;2023-04-01T05:16:16;11.27;;;0.80;;
6763;SDS011;47432;48.760;9.178;2023-04-01T05:18:44;10.70;;;0.77;;
6763;SDS011;47432;48.760;9.178;2023-04-01T05:21:11;12.50;;;0.77;;
6763;SDS011;47432;48.760;9.178;2023-04-01T05:23:38;11.77;;;0.83;;
6763;SDS011;47432;48.760;9.178;2023-04-01T05:26:05;16.30;;;1.07;;
6763;SDS011;47432;48.760;9.178;2023-04-01T05:28:37;12.07;;;0.80;;
6763;SDS011;47432;48.760;9.178;2023-04-01T05:31:04;11.10;;;0.77;;
6763;SDS011;47432;48.760;9.178;2023-04-01T05:33:32;14.90;;;0.80;;
6763;SDS011;47432;48.760;9.178;2023-04-01T05:36:05;11.40;;;0.90;;
6763;SDS011;47432;48.760;9.178;2023-04-01T05:38:37;11.60;;;0.97;;
6763;SDS011;47432;48.760;9.178;2023-04-01T05:41:03;12.90;;;0.90;;
6763;SDS011;47432;48.760;9.178;2023-04-01T05:43:29;12.60;;;1.47;;
6763;SDS011;47432;48.760;9.178;2023-04-01T05:45:55;12.70;;;0.90;;
6763;SDS011;47432;48.760;9.178;2023-04-01T05:48:22;11.20;;;1.00;;
6763;SDS011;47432;48.760;9.178;2023-04-01T05:50:50;11.23;;;0.80;;
6763;SDS011;47432;48.760;9.178;2023-04-01T05:53:16;13.87;;;1.10;;
6763;SDS011;47432;48.760;9.178;2023-04-01T05:55:42;9.93;;;0.77;;
6763;SDS011;47432;48.760;9.178;2023-04-01T05:58:08;10.73;;;0.87;;
6763;SDS011;47432;48.760;9.178;2023-04-01T06:00:34;9.97;;;0.83;;
6763;SDS011;47432;48.760;9.178;2023-04-01T06:03:00;11.07;;;0.83;;
6763;SDS011;47432;48.760;9.178;2023-04-01T06:05:30;10.23;;;0.60;;
6763;SDS011;47432;48.760;9.178;2023-04-01T06:08:12;9.97;;;0.97;;
6763;SDS011;47432;48.760;9.178;2023-04-01T06:13:26;11.47;;;0.80;;
6763;SDS011;47432;48.760;9.178;2023-04-01T06:25:16;11.57;;;1.00;;
6763;SDS011;47432;48.760;9.178;2023-04-01T06:31:10;10.20;;;1.07;;
6763;SDS011;47432;48.760;9.178;2023-04-01T06:39:37;9.50;;;0.60;;
6763;SDS011;47432;48.760;9.178;2023-04-01T06:45:41;8.60;;;0.60;;
6763;SDS011;47432;48.760;9.178;2023-04-01T06:48:29;9.37;;;1.07;;
6763;SDS011;47432;48.760;9.178;2023-04-01T06:51:57;9.10;;;0.80;;
6763;SDS011;47432;48.760;9.178;2023-04-01T06:54:41;10.53;;;0.93;;
6763;SDS011;47432;48.760;9.178;2023-04-01T06:57:22;9.40;;;0.83;;
6763;SDS011;47432;48.760;9.178;2023-04-01T07:00:04;10.10;;;0.77;;
6763;SDS011;47432;48.760;9.178;2023-04-01T07:02:54;10.03;;;0.83;;
6763;SDS011;47432;48.760;9.178;2023-04-01T07:05:31;8.23;;;0.73;;
6763;SDS011;47432;48.760;9.178;2023-04-01T07:07:59;9.47;;;0.80;;
6763;SDS011;47432;48.760;9.178;2023-04-01T07:13:24;11.17;;;0.90;;
6763;SDS011;47432;48.760;9.178;2023-04-01T07:19:52;9.33;;;1.10;;
6763;SDS011;47432;48.760;9.178;2023-04-01T07:22:00;8.90;;;1.30;;
6763;SDS011;47432;48.760;9.178;2023-04-01T07:24:39;8.40;;;0.73;;
6763;SDS011;47432;48.760;9.178;2023-04-01T07:27:09;7.97;;;0.60;;
6763;SDS011;47432;48.760;9.178;2023-04-01T07:29:40;9.17;;;0.80;;
6763;SDS011;47432;48.760;9.178;2023-04-01T07:32:13;8.53;;;0.87;;
6763;SDS011;47432;48.760;9.178;2023-04-01T07:38:08;8.97;;;0.87;;
6763;SDS011;47432;48.760;9.178;2023-04-01T07:46:59;10.53;;;0.80;;
6763;SDS011;47432;48.760;9.178;2023-04-01T07:55:05;8.80;;;0.60;;
6763;SDS011;47432;48.760;9.178;2023-04-01T07:57:53;8.97;;;0.80;;
6763;SDS011;47432;48.760;9.178;2023-04-01T08:01:05;9.43;;;0.90;;
6763;SDS011;47432;48.760;9.178;2023-04-01T08:15:22;8.90;;;0.60;;
6763;SDS011;47432;48.760;9.178;2023-04-01T08:21:32;9.03;;;0.70;;
6763;SDS011;47432;48.760;9.178;2023-04-01T08:24:07;9.17;;;1.00;;
6763;SDS011;47432;48.760;9.178;2023-04-01T08:29:56;8.70;;;0.63;;
6763;SDS011;47432;48.760;9.178;2023-04-01T08:32:48;9.17;;;0.80;;
6763;SDS011;47432;48.760;9.178;2023-04-01T08:38:13;10.17;;;0.70;;
6763;SDS011;47432;48.760;9.178;2023-04-01T08:40:56;9.37;;;0.63;;
6763;SDS011;47432;48.760;9.178;2023-04-01T08:43:45;8.30;;;0.80;;
6763;SDS011;47432;48.760;9.178;2023-04-01T08:49:34;8.30;;;0.77;;
6763;SDS011;47432;48.760;9.178;2023-04-01T08:52:34;8.67;;;0.90;;
6763;SDS011;47432;48.760;9.178;2023-04-01T08:55:44;8.57;;;0.73;;
6763;SDS011;47432;48.760;9.178;2023-04-01T09:01:42;8.20;;;0.53;;
6763;SDS011;47432;48.760;9.178;2023-04-01T09:07:59;9.10;;;0.70;;
6763;SDS011;47432;48.760;9.178;2023-04-01T09:10:40;8.20;;;0.60;;
6763;SDS011;47432;48.760;9.178;2023-04-01T09:13:35;8.20;;;0.53;;
6763;SDS011;47432;48.760;9.178;2023-04-01T09:16:24;8.13;;;0.60;;
6763;SDS011;47432;48.760;9.178;2023-04-01T09:19:28;8.60;;;0.87;;
6763;SDS011;47432;48.760;9.178;2023-04-01T09:28:49;8.20;;;0.70;;
6763;SDS011;47432;48.760;9.178;2023-04-01T09:32:12;8.20;;;0.60;;
6763;SDS011;47432;48.760;9.178;2023-04-01T09:35:19;8.10;;;0.50;;
6763;SDS011;47432;48.760;9.178;2023-04-01T09:43:33;8.03;;;0.50;;
6763;SDS011;47432;48.760;9.178;2023-04-01T09:46:26;7.97;;;0.60;;
6763;SDS011;47432;48.760;9.178;2023-04-01T09:49:26;9.43;;;0.60;;
6763;SDS011;47432;48.760;9.178;2023-04-01T09:55:19;8.07;;;0.60;;
6763;SDS011;47432;48.760;9.178;2023-04-01T10:13:48;8.03;;;0.50;;
6763;SDS011;47432;48.760;9.178;2023-04-01T10:26:25;8.43;;;0.60;;
6763;SDS011;47432;48.760;9.178;2023-04-01T10:29:30;8.50;;;0.50;;
6763;SDS011;47432;48.760;9.178;2023-04-01T10:52:58;8.10;;;0.53;;
6763;SDS011;47432;48.760;9.178;2023-04-01T11:08:03;8.03;;;0.47;;
6763;SDS011;47432;48.760;9.178;2023-04-01T11:16:56;8.13;;;0.40;;
6763;SDS011;47432;48.760;9.178;2023-04-01T11:23:17;8.10;;;0.40;;
6763;SDS011;47432;48.760;9.178;2023-04-01T11:29:27;8.30;;;0.50;;
6763;SDS011;47432;48.760;9.178;2023-04-01T11:35:19;8.80;;;0.60;;
6763;SDS011;47432;48.760;9.178;2023-04-01T11:38:07;8.60;;;0.47;;
6763;SDS011;47432;48.760;9.178;2023-04-01T11:40:45;8.37;;;0.50;;
6763;SDS011;47432;48.760;9.178;2023-04-01T11:46:27;8.33;;;0.40;;
6763;SDS011;47432;48.760;9.178;2023-04-01T12:04:27;8.27;;;0.40;;
6763;SDS011;47432;48.760;9.178;2023-04-01T12:13:31;8.37;;;0.40;;
6763;SDS011;47432;48.760;9.178;2023-04-01T12:16:37;8.30;;;0.47;;
6763;SDS011;47432;48.760;9.178;2023-04-01T12:19:21;8.27;;;0.47;;
6763;SDS011;47432;48.760;9.178;2023-04-01T12:27:50;8.17;;;0.40;;
6763;SDS011;47432;48.760;9.178;2023-04-01T12:30:47;8.27;;;0.50;;
6763;SDS011;47432;48.760;9.178;2023-04-01T12:33:50;8.30;;;0.50;;
6763;SDS011;47432;48.760;9.178;2023-04-01T12:36:53;8.37;;;0.50;;
6763;SDS011;47432;48.760;9.178;2023-04-01T12:39:59;8.80;;;0.40;;
6763;SDS011;47432;48.760;9.178;2023-04-01T12:46:24;9.20;;;1.40;;
6763;SDS011;47432;48.760;9.178;2023-04-01T12:52:13;8.27;;;0.40;;
6763;SDS011;47432;48.760;9.178;2023-04-01T13:06:36;8.60;;;0.40;;
6763;SDS011;47432;48.760;9.178;2023-04-01T13:09:24;8.90;;;0.50;;
6763;SDS011;47432;48.760;9.178;2023-04-01T13:12:24;8.40;;;0.50;;
6763;SDS011;47432;48.760;9.178;2023-04-01T13:15:25;8.70;;;0.60;;
6763;SDS011;47432;48.760;9.178;2023-04-01T13:18:05;8.13;;;0.40;;
6763;SDS011;47432;48.760;9.178;2023-04-01T13:21:04;9.00;;;0.40;;
6763;SDS011;47432;48.760;9.178;2023-04-01T13:26:29;8.40;;;0.40;;
6763;SDS011;47432;48.760;9.178;2023-04-01T13:29:12;8.50;;;0.60;;
6763;SDS011;47432;48.760;9.178;2023-04-01T13:31:52;8.10;;;0.30;;
6763;SDS011;47432;48.760;9.178;2023-04-01T13:34:55;8.60;;;0.70;;
6763;SDS011;47432;48.760;9.178;2023-04-01T13:40:42;8.07;;;0.40;;
6763;SDS011;47432;48.760;9.178;2023-04-01T13:43:49;8.70;;;0.50;;
6763;SDS011;47432;48.760;9.178;2023-04-01T13:57:37;8.07;;;0.40;;
6763;SDS011;47432;48.760;9.178;2023-04-01T14:05:56;8.20;;;0.50;;
6763;SDS011;47432;48.760;9.178;2023-04-01T14:09:03;8.30;;;0.53;;
6763;SDS011;47432;48.760;9.178;2023-04-01T14:14:36;8.27;;;0.60;;
6763;SDS011;47432;48.760;9.178;2023-04-01T14:20:22;8.17;;;0.47;;
6763;SDS011;47432;48.760;9.178;2023-04-01T14:28:48;8.20;;;0.50;;
6763;SDS011;47432;48.760;9.178;2023-04-01T14:34:45;8.30;;;0.60;;
6763;SDS011;47432;48.760;9.178;2023-04-01T14:40:26;8.03;;;0.40;;
6763;SDS011;47432;48.760;9.178;2023-04-01T14:48:38;8.23;;;0.50;;
6763;SDS011;47432;48.760;9.178;2023-04-01T14:51:31;8.43;;;0.43;;
6763;SDS011;47432;48.760;9.178;2023-04-01T14:57:12;8.27;;;0.50;;
6763;SDS011;47432;48.760;9.178;2023-04-01T14:59:51;8.20;;;0.50;;
6763;SDS011;47432;48.760;9.178;2023-04-01T15:02:59;8.27;;;0.50;;
6763;SDS011;47432;48.760;9.178;2023-04-01T15:08:54;8.17;;;0.43;;
6763;SDS011;47432;48.760;9.178;2023-04-01T15:11:51;8.47;;;0.67;;
6763;SDS011;47432;48.760;9.178;2023-04-01T15:17:58;8.47;;;0.50;;
6763;SDS011;47432;48.760;9.178;2023-04-01T15:33:14;8.50;;;0.57;;
6763;SDS011;47432;48.760;9.178;2023-04-01T15:38:43;8.40;;;0.60;;
6763;SDS011;47432;48.760;9.178;2023-04-01T15:42:04;8.80;;;0.60;;
6763;SDS011;47432;48.760;9.178;2023-04-01T15:45:17;8.23;;;0.40;;
6763;SDS011;47432;48.760;9.178;2023-04-01T15:50:36;8.40;;;0.70;;
6763;SDS011;47432;48.760;9.178;2023-04-01T15:56:49;9.00;;;0.50;;
6763;SDS011;47432;48.760;9.178;2023-04-01T15:59:41;8.90;;;0.63;;
6763;SDS011;47432;48.760;9.178;2023-04-01T16:02:49;8.10;;;0.40;;
6763;SDS011;47432;48.760;9.178;2023-04-01T16:14:36;8.63;;;0.70;;
6763;SDS011;47432;48.760;9.178;2023-04-01T16:20:03;8.70;;;0.80;;
6763;SDS011;47432;48.760;9.178;2023-04-01T16:25:47;8.60;;;0.60;;
6763;SDS011;47432;48.760;9.178;2023-04-01T16:28:24;8.40;;;0.60;;
6763;SDS011;47432;48.760;9.178;2023-04-01T16:34:08;9.27;;;0.73;;
6763;SDS011;47432;48.760;9.178;2023-04-01T16:48:06;8.07;;;0.57;;
6763;SDS011;47432;48.760;9.178;2023-04-01T16:51:19;9.23;;;0.80;;
6763;SDS011;47432;48.760;9.178;2023-04-01T16:53:48;8.30;;;0.70;;
6763;SDS011;47432;48.760;9.178;2023-04-01T16:56:49;8.17;;;0.73;;
6763;SDS011;47432;48.760;9.178;2023-04-01T16:59:29;11.23;;;0.80;;
6763;SDS011;47432;48.760;9.178;2023-04-01T17:02:20;8.90;;;0.87;;
6763;SDS011;47432;48.760;9.178;2023-04-01T17:10:33;8.67;;;0.80;;
6763;SDS011;47432;48.760;9.178;2023-04-01T17:13:51;8.80;;;0.80;;
6763;SDS011;47432;48.760;9.178;2023-04-01T17:16:51;8.70;;;1.10;;
6763;SDS011;47432;48.760;9.178;2023-04-01T17:22:31;9.20;;;0.90;;
6763;SDS011;47432;48.760;9.178;2023-04-01T17:25:31;11.50;;;0.83;;
6763;SDS011;47432;48.760;9.178;2023-04-01T17:31:05;8.90;;;0.70;;
6763;SDS011;47432;48.760;9.178;2023-04-01T17:39:25;8.57;;;1.03;;
6763;SDS011;47432;48.760;9.178;2023-04-01T17:42:18;8.90;;;1.00;;
6763;SDS011;47432;48.760;9.178;2023-04-01T17:48:27;8.13;;;0.70;;
6763;SDS011;47432;48.760;9.178;2023-04-01T17:54:10;8.20;;;0.70;;
6763;SDS011;47432;48.760;9.178;2023-04-01T17:59:39;8.40;;;0.80;;
6763;SDS011;47432;48.760;9.178;2023-04-01T18:02:35;8.37;;;0.70;;
6763;SDS011;47432;48.760;9.178;2023-04-01T18:05:30;8.47;;;0.80;;
6763;SDS011;47432;48.760;9.178;2023-04-01T18:11:21;8.50;;;1.00;;
6763;SDS011;47432;48.760;9.178;2023-04-01T18:17:12;9.80;;;0.90;;
6763;SDS011;47432;48.760;9.178;2023-04-01T18:22:45;8.00;;;1.10;;
6763;SDS011;47432;48.760;9.178;2023-04-01T18:25:46;9.23;;;0.80;;
6763;SDS011;47432;48.760;9.178;2023-04-01T18:28:33;7.70;;;0.80;;
6763;SDS011;47432;48.760;9.178;2023-04-01T18:31:15;8.43;;;1.20;;
6763;SDS011;47432;48.760;9.178;2023-04-01T18:40:25;7.87;;;0.90;;
6763;SDS011;47432;48.760;9.178;2023-04-01T18:46:30;7.80;;;1.13;;
6763;SDS011;47432;48.760;9.178;2023-04-01T18:49:16;7.63;;;1.00;;
6763;SDS011;47432;48.760;9.178;2023-04-01T18:51:59;7.50;;;0.80;;
6763;SDS011;47432;48.760;9.178;2023-04-01T18:57:52;8.00;;;0.80;;
6763;SDS011;47432;48.760;9.178;2023-04-01T19:00:32;8.90;;;1.03;;
6763;SDS011;47432;48.760;9.178;2023-04-01T19:03:22;8.00;;;0.90;;
6763;SDS011;47432;48.760;9.178;2023-04-01T19:06:08;9.40;;;0.77;;
6763;SDS011;47432;48.760;9.178;2023-04-01T19:08:46;7.27;;;0.60;;
6763;SDS011;47432;48.760;9.178;2023-04-01T19:14:18;9.30;;;1.20;;
6763;SDS011;47432;48.760;9.178;2023-04-01T19:17:19;7.90;;;1.00;;
6763;SDS011;47432;48.760;9.178;2023-04-01T19:23:17;7.83;;;1.20;;
6763;SDS011;47432;48.760;9.178;2023-04-01T19:26:05;7.57;;;0.73;;
6763;SDS011;47432;48.760;9.178;2023-04-01T19:31:58;7.63;;;0.87;;
6763;SDS011;47432;48.760;9.178;2023-04-01T19:37:54;8.10;;;0.90;;
6763;SDS011;47432;48.760;9.178;2023-04-01T19:40:48;7.63;;;0.83;;
6763;SDS011;47432;48.760;9.178;2023-04-01T19:43:44;11.53;;;1.10;;
6763;SDS011;47432;48.760;9.178;2023-04-01T19:57:09;7.70;;;0.80;;
6763;SDS011;47432;48.760;9.178;2023-04-01T19:59:38;8.10;;;0.97;;
6763;SDS011;47432;48.760;9.178;2023-04-01T20:02:22;8.00;;;1.00;;
6763;SDS011;47432;48.760;9.178;2023-04-01T20:05:02;7.40;;;0.93;;
6763;SDS011;47432;48.760;9.178;2023-04-01T20:07:43;8.00;;;1.07;;
6763;SDS011;47432;48.760;9.178;2023-04-01T20:10:20;7.80;;;0.70;;
6763;SDS011;47432;48.760;9.178;2023-04-01T20:15:38;8.57;;;0.83;;
6763;SDS011;47432;48.760;9.178;2023-04-01T20:20:59;7.50;;;0.87;;
6763;SDS011;47432;48.760;9.178;2023-04-01T20:26:03;7.33;;;0.70;;
6763;SDS011;47432;48.760;9.178;2023-04-01T20:28:44;7.10;;;0.50;;
6763;SDS011;47432;48.760;9.178;2023-04-01T20:31:24;8.23;;;1.10;;
6763;SDS011;47432;48.760;9.178;2023-04-01T20:36:58;8.40;;;0.97;;
6763;SDS011;47432;48.760;9.178;2023-04-01T20:45:25;7.20;;;0.70;;
6763;SDS011;47432;48.760;9.178;2023-04-01T20:53:29;7.97;;;0.90;;
6763;SDS011;47432;48.760;9.178;2023-04-01T21:07:46;8.40;;;0.83;;
6763;SDS011;47432;48.760;9.178;2023-04-01T21:10:26;8.27;;;0.63;;
6763;SDS011;47432;48.760;9.178;2023-04-01T21:23:58;7.77;;;0.70;;
6763;SDS011;47432;48.760;9.178;2023-04-01T21:35:47;8.10;;;0.83;;
6763;SDS011;47432;48.760;9.178;2023-04-01T21:41:02;8.87;;;1.00;;
6763;SDS011;47432;48.760;9.178;2023-04-01T21:46:46;8.40;;;0.80;;
6763;SDS011;47432;48.760;9.178;2023-04-01T22:00:42;7.87;;;0.67;;
6763;SDS011;47432;48.760;9.178;2023-04-01T22:03:49;8.10;;;0.70;;
6763;SDS011;47432;48.760;9.178;2023-04-01T22:07:38;7.83;;;0.77;;
6763;SDS011;47432;48.760;9.178;2023-04-01T22:12:59;8.03;;;0.80;;
6763;SDS011;47432;48.760;9.178;2023-04-01T22:16:03;8.00;;;0.63;;
6763;SDS011;47432;48.760;9.178;2023-04-01T22:19:15;7.90;;;0.80;;
6763;SDS011;47432;48.760;9.178;2023-04-01T22:27:39;8.70;;;0.70;;
6763;SDS011;47432;48.760;9.178;2023-04-01T22:30:17;7.90;;;0.70;;
6763;SDS011;47432;48.760;9.178;2023-04-01T22:32:49;8.00;;;0.60;;
6763;SDS011;47432;48.760;9.178;2023-04-01T22:41:10;8.13;;;0.70;;
6763;SDS011;47432;48.760;9.178;2023-04-01T22:43:45;7.97;;;0.70;;
6763;SDS011;47432;48.760;9.178;2023-04-01T22:46:35;7.80;;;0.80;;
6763;SDS011;47432;48.760;9.178;2023-04-01T22:49:18;8.10;;;0.60;;
6763;SDS011;47432;48.760;9.178;2023-04-01T22:51:57;7.67;;;0.63;;
6763;SDS011;47432;48.760;9.178;2023-04-01T22:54:41;8.10;;;0.70;;
6763;SDS011;47432;48.760;9.178;2023-04-01T22:57:16;7.57;;;0.50;;
6763;SDS011;47432;48.760;9.178;2023-04-01T23:00:08;7.90;;;0.77;;
6763;SDS011;47432;48.760;9.178;2023-04-01T23:05:18;7.73;;;0.50;;
6763;SDS011;47432;48.760;9.178;2023-04-01T23:08:00;7.80;;;0.50;;
6763;SDS011;47432;48.760;9.178;2023-04-01T23:10:51;8.87;;;0.60;;
6763;SDS011;47432;48.760;9.178;2023-04-01T23:13:30;7.90;;;0.70;;
6763;SDS011;47432;48.760;9.178;2023-04-01T23:16:02;8.57;;;0.93;;
6763;SDS011;47432;48.760;9.178;2023-04-01T23:21:39;8.60;;;0.90;;
6763;SDS011;47432;48.760;9.178;2023-04-01T23:24:25;9.03;;;0.60;;
6763;SDS011;47432;48.760;9.178;2023-04-01T23:27:09;8.20;;;1.00;;
6763;SDS011;47432;48.760;9.178;2023-04-01T23:29:39;8.10;;;0.80;;
6763;SDS011;47432;48.760;9.178;2023-04-01T23:32:19;8.10;;;0.67;;
6763;SDS011;47432;48.760;9.178;2023-04-01T23:34:51;8.00;;;0.70;;
6763;SDS011;47432;48.760;9.178;2023-04-01T23:37:20;7.67;;;0.50;;
6763;SDS011;47432;48.760;9.178;2023-04-01T23:39:48;8.77;;;1.23;;
6763;SDS011;47432;48.760;9.178;2023-04-01T23:42:19;8.70;;;0.60;;
6763;SDS011;47432;48.760;9.178;2023-04-01T23:44:55;8.20;;;0.73;;
6763;SDS011;47432;48.760;9.178;2023-04-01T23:47:26;7.70;;;0.50;;
6763;SDS011;47432;48.760;9.178;2023-04-01T23:49:57;8.70;;;0.73;;
6763;SDS011;47432;48.760;9.178;2023-04-01T23:52:27;11.23;;;1.47;;
6763;SDS011;47432;48.760;9.178;2023-04-01T23:55:08;8.70;;;0.83;;
6763;SDS011;47432;48.760;9.178;2023-04-01T23:57:39;7.57;;;0.53;;
